Latest Coastal Weather Observations for Gold Coast Seaway

IDQ60701

Issued at 12:51 pm EST Sunday 1 March 2015 (issued every 10 minutes, with the page automatically refreshed every 10 minutes)

About coastal observations | Map of coastal stations | Coastal observations for QLD | Marine services | Other Formats
Station Details ID: 040764 Name: GOLD COAST SEAWAY Lat: -27.94 Lon: 153.43 Height: 2.98 m
Data from the previous 72 hours. | See also: Recent months at Gold Coast Seaway
Date/Time
EST
Temp

°C
Wind Pressure Rain
since 9am
mm
Weather Cloud Vis
km
Sea
Height
m
Swell
Dir
 
Speed
knots
Gust
knots
hPa Trend Height
m
Period
s
Dir
01/12:30pm 29.2 NE 11 13 1009.5 - 0.0 - - - - - - -
01/12:00pm 29.0 NE 10 12 1009.8 - 0.0 - - - - - - -
01/11:30am 29.2 NE 9 10 1010.2 - 0.0 - - - - - - -
01/11:00am 29.0 NE 8 9 1010.5 - 0.0 - - - - - - -
01/10:30am 28.5 NE 8 9 1010.9 - 0.0 - - - - - - -
01/10:00am 28.8 NE 7 8 1011.1 - 0.0 - - - - - - -
01/09:30am 28.6 ENE 6 7 1011.1 - 0.0 - - - - - - -
01/09:00am 27.8 W 6 6 1011.1 - 0.2 - - - - - - -
01/08:30am 26.5 W 4 6 1010.9 - 0.2 - - - - - - -
01/08:00am 25.9 SW 4 5 1010.8 - 0.2 - - - - - - -
01/07:30am 25.0 SW 4 5 1010.7 - 0.2 - - - - - - -
01/07:00am 24.0 SW 4 6 1010.6 - 0.2 - - - - - - -
01/06:30am 23.0 SW 5 6 1010.5 - 0.2 - - - - - - -
01/06:00am 22.4 SW 5 6 1010.2 - 0.2 - - - - - - -
01/05:30am 22.4 W 5 6 1009.9 - 0.2 - - - - - - -
01/05:00am 22.7 W 4 5 1009.8 - 0.2 - - - - - - -
01/04:30am 23.2 W 3 4 1009.5 - 0.2 - - - - - - -
01/04:00am 23.2 W 3 5 1009.5 - 0.2 - - - - - - -
01/03:30am 23.3 W 1 4 1009.5 - 0.2 - - - - - - -
01/03:00am 23.7 WNW 5 7 1009.7 - 0.2 - - - - - - -
01/02:30am 24.0 N 6 10 1009.8 - 0.2 - - - - - - -
01/02:00am 24.6 NE 9 11 1009.9 - 0.2 - - - - - - -
01/01:30am 24.5 NE 8 12 1010.0 - 0.2 - - - - - - -
01/01:00am 24.1 NE 4 7 1010.4 - 0.0 - - - - - - -
01/12:30am 24.4 N 6 8 1010.7 - 0.0 - - - - - - -
 
Date/Time
EST
Temp

°C
Wind Pressure Rain
since 9am
mm
Weather Cloud Vis
km
Sea
Height
m
Swell
Dir
 
Speed
knots
Gust
knots
hPa Trend Height
m
Period
s
Dir
28/11:30pm 24.8 NNE 7 9 1011.3 - 0.0 - - - - - - -
28/11:00pm 24.9 NNE 8 9 1011.3 - 0.0 - - - - - - -
28/10:30pm 25.1 NE 8 9 1011.5 - 0.0 - - - - - - -
28/10:00pm 25.1 NE 7 8 1011.6 - 0.0 - - - - - - -
28/09:30pm 25.0 NE 7 9 1011.6 - 0.0 - - - - - - -
28/09:00pm 25.2 NE 8 10 1011.4 - 0.0 - - - - - - -
28/08:30pm 25.2 NE 9 10 1011.3 - 0.0 - - - - - - -
28/08:00pm 25.2 ENE 9 11 1011.0 - 0.0 - - - - - - -
28/07:30pm 25.3 ENE 9 12 1010.7 - 0.0 - - - - - - -
28/07:00pm 25.5 NE 9 10 1010.4 - 0.0 - - - - - - -
28/06:30pm 25.4 ENE 8 10 1010.1 - 0.0 - - - - - - -
28/06:00pm 25.5 ENE 9 11 1009.8 - 0.0 - - - - - - -
28/05:30pm 25.9 ENE 9 12 1009.5 - 0.0 - - - - - - -
28/05:00pm 26.8 ENE 9 12 1009.4 - 0.0 - - - - - - -
28/04:30pm 26.5 ENE 10 12 1009.4 - 0.0 - - - - - - -
28/04:00pm 26.5 ENE 9 12 1009.3 - 0.0 - - - - - - -
28/03:30pm 26.7 ENE 10 14 1009.3 - 0.0 - - - - - - -
28/03:00pm 27.4 NE 10 13 1009.2 - 0.0 - - - - - - -
28/02:30pm 28.0 ENE 11 13 1009.4 - 0.0 - - - - - - -
28/02:00pm 28.2 ENE 10 13 1009.6 - 0.0 - - - - - - -
28/01:30pm 28.3 E 11 13 1009.9 - 0.0 - - - - - - -
28/01:00pm 28.3 E 11 13 1010.0 - 0.0 - - - - - - -
28/12:30pm 28.3 E 10 11 1010.4 - 0.0 - - - - - - -
28/12:00pm 28.2 E 10 13 1010.6 - 0.0 - - - - - - -
28/11:30am 28.1 E 10 11 1010.8 - 0.0 - - - - - - -
28/11:00am 28.6 E 8 9 1011.0 - 0.0 - - - - - - -
28/10:30am 28.2 E 7 8 1011.2 - 0.0 - - - - - - -
28/10:00am 27.8 E 7 8 1011.3 - 0.0 - - - - - - -
28/09:30am 27.5 ESE 8 9 1011.3 - 0.0 - - - - - - -
28/09:00am 27.1 SSE 7 8 1011.4 - 23.2 - - - - - - -
28/08:30am 25.4 WSW 3 5 1011.2 - 23.2 - - - - - - -
28/08:00am 24.1 WSW 4 6 1011.0 - 23.2 - - - - - - -
28/07:30am 23.7 WSW 5 6 1010.8 - 23.2 - - - - - - -
28/07:00am 23.0 WSW 5 6 1010.6 - 23.2 - - - - - - -
28/06:30am 22.2 WSW 5 6 1010.3 - 23.2 - - - - - - -
28/06:00am 21.7 WSW 5 6 1010.1 - 23.2 - - - - - - -
28/05:30am 21.6 N 4 6 1009.8 - 23.2 - - - - - - -
28/05:00am 21.7 N 4 5 1009.7 - 23.2 - - - - - - -
28/04:30am 21.9 N 4 6 1009.9 - 23.2 - - - - - - -
28/04:00am 22.0 NW 5 6 1009.8 - 23.0 - - - - - - -
28/03:30am 21.8 W 6 8 1009.5 - 23.0 - - - - - - -
28/03:00am 21.9 WNW 7 9 1009.5 - 22.8 - - - - - - -
28/02:30am 21.9 W 6 8 1009.7 - 22.8 - - - - - - -
28/02:00am 21.7 N 8 12 1009.8 - 22.8 - - - - - - -
28/01:30am 22.6 E 3 6 1010.0 - 20.2 - - - - - - -
28/01:00am 22.5 ESE 14 20 1009.9 - 16.4 - - - - - - -
28/12:46am 22.3 ESE 18 24 1009.7 - 9.4 - - - - - - -
28/12:30am 23.2 SE 11 14 1010.2 - 5.0 - - - - - - -
28/12:00am 25.4 N 11 13 1009.8 - 0.0 - - - - - - -
 
Date/Time
EST
Temp

°C
Wind Pressure Rain
since 9am
mm
Weather Cloud Vis
km
Sea
Height
m
Swell
Dir
 
Speed
knots
Gust
knots
hPa Trend Height
m
Period
s
Dir
27/11:30pm 25.3 NNE 10 12 1010.0 - 0.0 - - - - - - -
27/11:00pm 25.2 NNE 12 14 1009.7 - 0.0 - - - - - - -
27/10:30pm 25.4 NNE 10 13 1009.9 - 0.0 - - - - - - -
27/10:00pm 25.1 NNE 9 10 1009.8 - 0.0 - - - - - - -
27/09:30pm 25.3 NE 8 10 1009.9 - 0.0 - - - - - - -
27/09:00pm 25.4 ENE 8 9 1010.1 - 0.0 - - - - - - -
27/08:30pm 25.5 NE 9 10 1009.9 - 0.0 - - - - - - -
27/08:00pm 25.4 NE 11 13 1009.6 - 0.0 - - - - - - -
27/07:30pm 25.4 NE 9 11 1009.0 - 0.0 - - - - - - -
27/07:00pm 25.4 ENE 10 13 1008.6 - 0.0 - - - - - - -
27/06:30pm 25.6 ENE 9 11 1008.5 - 0.0 - - - - - - -
27/06:00pm 25.7 ENE 11 13 1008.3 - 0.0 - - - - - - -
27/05:30pm 25.9 NE 10 12 1007.5 - 0.0 - - - - - - -
27/05:00pm 26.8 NE 10 12 1007.3 - 0.0 - - - - - - -
27/04:30pm 27.1 NE 11 13 1007.1 - 0.0 - - - - - - -
27/04:00pm 27.6 NE 12 14 1006.9 - 0.0 - - - - - - -
27/03:30pm 28.1 NE 12 14 1006.9 - 0.0 - - - - - - -
27/03:00pm 27.7 NE 10 12 1007.0 - 0.0 - - - - - - -
27/02:30pm 26.8 NE 11 12 1007.1 - 0.0 - - - - - - -
27/02:00pm 27.7 NE 11 13 1007.2 - 0.0 - - - - - - -
27/01:30pm 27.2 NE 11 13 1007.3 - 0.0 - - - - - - -
27/01:00pm 28.1 ENE 8 10 1007.9 - 0.0 - - - - - - -
27/12:30pm 27.8 ENE 8 10 1007.9 - 0.0 - - - - - - -
27/12:00pm 29.5 NE 8 10 1008.1 - 0.0 - - - - - - -
27/11:30am 28.9 N 6 10 1008.5 - 0.0 - - - - - - -
27/11:00am 27.6 NW 7 10 1008.9 - 0.0 - - - - - - -
27/10:30am 27.1 NNW 7 9 1009.3 - 0.0 - - - - - - -
27/10:00am 27.0 NW 8 14 1009.3 - 0.0 - - - - - - -
27/09:30am 26.0 NNW 8 10 1009.2 - 0.0 - - - - - - -
27/09:00am 25.9 NW 10 13 1009.3 - 0.0 - - - - - - -
27/08:30am 24.4 NW 8 11 1009.0 - 0.0 - - - - - - -
27/08:00am 23.9 NW 7 8 1009.0 - 0.0 - - - - - - -
27/07:30am 23.7 NW 6 8 1008.5 - 0.0 - - - - - - -
27/07:00am 23.2 WSW 3 5 1008.8 - 0.0 - - - - - - -
27/06:30am 23.0 WSW 4 5 1009.5 - 0.0 - - - - - - -
27/06:00am 22.9 WSW 5 6 1009.4 - 0.0 - - - - - - -
27/05:30am 23.0 WSW 5 6 1008.9 - 0.0 - - - - - - -
27/05:00am 23.1 S 4 6 1008.5 - 0.0 - - - - - - -
27/04:30am 23.1 S 4 5 1007.9 - 0.0 - - - - - - -
27/04:00am 23.4 S 5 7 1008.2 - 0.0 - - - - - - -
27/03:30am 24.3 NNE 5 8 1008.0 - 0.0 - - - - - - -
27/03:00am 24.5 NE 7 9 1007.0 - 0.0 - - - - - - -
27/02:30am 24.4 NE 7 8 1007.3 - 0.0 - - - - - - -
27/02:00am 24.4 ENE 8 9 1007.8 - 0.0 - - - - - - -
27/01:30am 24.5 NE 7 9 1007.6 - 0.0 - - - - - - -
27/01:00am 24.8 NE 7 9 1007.9 - 0.0 - - - - - - -
27/12:30am 24.9 NE 8 9 1008.2 - 0.0 - - - - - - -
27/12:00am 25.0 NE 7 9 1008.5 - 0.0 - - - - - - -
 
Date/Time
EST
Temp

°C
Wind Pressure Rain
since 9am
mm
Weather Cloud Vis
km
Sea
Height
m
Swell
Dir
 
Speed
knots
Gust
knots
hPa Trend Height
m
Period
s
Dir
26/11:30pm 25.0 ENE 7 9 1008.7 - 0.0 - - - - - - -
26/11:00pm 25.0 ENE 7 8 1008.9 - 0.0 - - - - - - -
26/10:30pm 25.0 ENE 7 9 1009.0 - 0.0 - - - - - - -
26/10:00pm 25.0 ENE 8 10 1009.0 - 0.0 - - - - - - -
26/09:30pm 25.0 ENE 7 9 1009.0 - 0.0 - - - - - - -
26/09:00pm 24.8 E 7 9 1008.8 - 0.0 - - - - - - -
26/08:30pm 24.9 ENE 7 8 1009.0 - 0.0 - - - - - - -
26/08:00pm 24.8 E 8 9 1008.6 - 0.0 - - - - - - -
26/07:30pm 25.0 E 8 10 1008.7 - 0.0 - - - - - - -
26/07:00pm 25.0 ESE 8 9 1008.2 - 0.0 - - - - - - -
26/06:30pm 25.0 ESE 9 10 1008.0 - 0.0 - - - - - - -
26/06:00pm 25.2 ESE 10 12 1007.8 - 0.0 - - - - - - -
26/05:30pm 25.4 ESE 9 10 1007.6 - 0.0 - - - - - - -
26/05:00pm 25.8 ESE 8 9 1007.7 - 0.0 - - - - - - -
26/04:30pm 25.8 ESE 8 9 1007.4 - 0.0 - - - - - - -
26/04:00pm 26.1 ESE 9 10 1007.6 - 0.0 - - - - - - -
26/03:30pm 26.9 ESE 9 10 1007.5 - 0.0 - - - - - - -
26/03:00pm 28.1 E 10 12 1007.4 - 0.0 - - - - - - -
26/02:30pm 28.3 E 10 12 1007.8 - 0.0 - - - - - - -
26/02:00pm 28.3 E 10 12 1007.9 - 0.0 - - - - - - -
26/01:30pm 27.0 ESE 10 13 1008.6 - 0.0 - - - - - - -
26/01:00pm 27.8 ESE 10 13 1008.7 - 0.0 - - - - - - -

Other Formats:

Comma delimited format used in spreadsheet applications
http://www.bom.gov.au/fwo/IDQ60701/IDQ60701.94580.axf

JavaScript Object Notation format (JSON) in row-major order
http://www.bom.gov.au/fwo/IDQ60701/IDQ60701.94580.json